sensor_id;sensor_type;location;lat;lon;timestamp;pressure;altitude;pressure_sealevel;temperature;humidity
7990;BME280;4040;42.848;23.034;2024-02-26T00:03:28;94408.88;;;5.16;100.00
7990;BME280;4040;42.848;23.034;2024-02-26T00:09:17;94414.91;;;4.95;100.00
7990;BME280;4040;42.848;23.034;2024-02-26T00:15:06;94411.81;;;4.93;100.00
7990;BME280;4040;42.848;23.034;2024-02-26T00:20:56;94397.75;;;5.00;100.00
7990;BME280;4040;42.848;23.034;2024-02-26T00:26:45;94404.94;;;4.86;100.00
7990;BME280;4040;42.848;23.034;2024-02-26T00:32:34;94382.88;;;4.95;100.00
7990;BME280;4040;42.848;23.034;2024-02-26T00:38:24;94376.84;;;5.12;100.00
7990;BME280;4040;42.848;23.034;2024-02-26T00:44:13;94369.97;;;5.15;100.00
7990;BME280;4040;42.848;23.034;2024-02-26T00:50:02;94388.31;;;5.16;100.00
7990;BME280;4040;42.848;23.034;2024-02-26T00:55:52;94376.09;;;5.22;100.00
7990;BME280;4040;42.848;23.034;2024-02-26T01:01:41;94364.66;;;5.15;100.00
7990;BME280;4040;42.848;23.034;2024-02-26T01:07:30;94357.03;;;5.20;100.00
7990;BME280;4040;42.848;23.034;2024-02-26T01:13:24;94355.56;;;5.40;100.00
7990;BME280;4040;42.848;23.034;2024-02-26T01:19:23;94346.41;;;5.48;100.00
7990;BME280;4040;42.848;23.034;2024-02-26T01:25:12;94339.13;;;5.45;100.00
7990;BME280;4040;42.848;23.034;2024-02-26T01:31:04;94331.91;;;5.56;100.00
7990;BME280;4040;42.848;23.034;2024-02-26T01:36:55;94339.16;;;5.66;100.00
7990;BME280;4040;42.848;23.034;2024-02-26T01:42:44;94331.94;;;5.84;100.00
7990;BME280;4040;42.848;23.034;2024-02-26T01:48:35;94346.44;;;5.69;100.00
7990;BME280;4040;42.848;23.034;2024-02-26T01:54:24;94341.13;;;5.83;100.00
7990;BME280;4040;42.848;23.034;2024-02-26T02:00:14;94341.13;;;5.90;100.00
7990;BME280;4040;42.848;23.034;2024-02-26T02:10:27;94356.41;;;5.79;100.00
7990;BME280;4040;42.848;23.034;2024-02-26T02:16:17;94339.97;;;5.81;100.00
7990;BME280;4040;42.848;23.034;2024-02-26T02:22:07;94344.94;;;5.89;100.00
7990;BME280;4040;42.848;23.034;2024-02-26T02:27:56;94338.06;;;5.92;100.00
7990;BME280;4040;42.848;23.034;2024-02-26T02:33:46;94348.72;;;5.60;100.00
7990;BME280;4040;42.848;23.034;2024-02-26T02:39:36;94348.72;;;5.60;100.00
7990;BME280;4040;42.848;23.034;2024-02-26T02:45:25;94342.59;;;5.56;100.00
7990;BME280;4040;42.848;23.034;2024-02-26T02:51:14;94347.94;;;5.49;100.00
7990;BME280;4040;42.848;23.034;2024-02-26T02:57:05;94332.28;;;5.48;100.00
7990;BME280;4040;42.848;23.034;2024-02-26T03:02:53;94330.78;;;5.64;100.00
7990;BME280;4040;42.848;23.034;2024-02-26T03:13:06;94333.47;;;5.71;100.00
7990;BME280;4040;42.848;23.034;2024-02-26T03:18:55;94328.09;;;5.64;100.00
7990;BME280;4040;42.848;23.034;2024-02-26T03:24:44;94315.13;;;5.66;100.00
7990;BME280;4040;42.848;23.034;2024-02-26T03:30:34;94325.03;;;5.55;100.00
7990;BME280;4040;42.848;23.034;2024-02-26T03:36:23;94317.41;;;5.43;100.00
7990;BME280;4040;42.848;23.034;2024-02-26T03:42:12;94300.63;;;5.46;100.00
7990;BME280;4040;42.848;23.034;2024-02-26T03:44:39;94293.00;;;5.62;100.00
7990;BME280;4040;42.848;23.034;2024-02-26T03:50:30;94286.94;;;5.79;100.00
7990;BME280;4040;42.848;23.034;2024-02-26T03:56:19;94305.19;;;5.77;100.00
7990;BME280;4040;42.848;23.034;2024-02-26T04:02:10;94306.75;;;5.89;100.00
7990;BME280;4040;42.848;23.034;2024-02-26T04:08:00;94300.25;;;5.93;100.00
7990;BME280;4040;42.848;23.034;2024-02-26T04:13:51;94309.81;;;5.94;100.00
7990;BME280;4040;42.848;23.034;2024-02-26T04:19:40;94311.34;;;5.85;100.00
7990;BME280;4040;42.848;23.034;2024-02-26T04:25:30;94304.84;;;5.82;100.00
7990;BME280;4040;42.848;23.034;2024-02-26T04:31:19;94306.72;;;5.64;100.00
7990;BME280;4040;42.848;23.034;2024-02-26T04:37:07;94294.53;;;5.53;100.00
7990;BME280;4040;42.848;23.034;2024-02-26T04:42:58;94291.84;;;5.67;100.00
7990;BME280;4040;42.848;23.034;2024-02-26T04:48:47;94266.28;;;5.59;100.00
7990;BME280;4040;42.848;23.034;2024-02-26T04:54:36;94299.88;;;5.70;100.00
7990;BME280;4040;42.848;23.034;2024-02-26T05:00:26;94301.03;;;5.90;100.00
7990;BME280;4040;42.848;23.034;2024-02-26T05:06:15;94292.25;;;5.76;100.00
7990;BME280;4040;42.848;23.034;2024-02-26T05:16:27;94304.09;;;5.92;100.00
7990;BME280;4040;42.848;23.034;2024-02-26T05:22:18;94301.78;;;6.01;100.00
7990;BME280;4040;42.848;23.034;2024-02-26T05:28:07;94298.31;;;6.18;100.00
7990;BME280;4040;42.848;23.034;2024-02-26T05:33:57;94299.03;;;6.36;100.00
7990;BME280;4040;42.848;23.034;2024-02-26T05:39:46;94318.13;;;6.45;100.00
7990;BME280;4040;42.848;23.034;2024-02-26T05:45:35;94321.91;;;6.55;100.00
7990;BME280;4040;42.848;23.034;2024-02-26T05:51:25;94324.16;;;6.67;100.00
7990;BME280;4040;42.848;23.034;2024-02-26T05:57:14;94329.50;;;6.70;100.00
7990;BME280;4040;42.848;23.034;2024-02-26T06:03:04;94337.13;;;6.75;100.00
7990;BME280;4040;42.848;23.034;2024-02-26T06:08:54;94334.75;;;6.98;100.00
7990;BME280;4040;42.848;23.034;2024-02-26T06:19:05;94361.44;;;7.12;100.00
7990;BME280;4040;42.848;23.034;2024-02-26T06:24:55;94374.78;;;7.26;100.00
7990;BME280;4040;42.848;23.034;2024-02-26T06:30:44;94383.53;;;7.37;100.00
7990;BME280;4040;42.848;23.034;2024-02-26T06:36:34;94396.38;;;7.63;100.00
7990;BME280;4040;42.848;23.034;2024-02-26T06:42:24;94394.03;;;7.72;100.00
7990;BME280;4040;42.848;23.034;2024-02-26T06:48:13;94381.91;;;7.53;100.00
7990;BME280;4040;42.848;23.034;2024-02-26T06:54:02;94411.50;;;7.94;100.00
7990;BME280;4040;42.848;23.034;2024-02-26T06:59:53;94428.78;;;8.44;100.00
7990;BME280;4040;42.848;23.034;2024-02-26T07:05:41;94433.97;;;8.65;100.00
7990;BME280;4040;42.848;23.034;2024-02-26T07:11:32;94451.59;;;8.66;100.00
7990;BME280;4040;42.848;23.034;2024-02-26T07:21:44;94455.78;;;9.07;100.00
7990;BME280;4040;42.848;23.034;2024-02-26T07:27:33;94467.63;;;9.17;100.00
7990;BME280;4040;42.848;23.034;2024-02-26T07:33:22;94457.63;;;9.51;100.00
7990;BME280;4040;42.848;23.034;2024-02-26T07:39:13;94463.28;;;9.90;100.00
7990;BME280;4040;42.848;23.034;2024-02-26T07:45:06;94446.97;;;10.03;100.00
7990;BME280;4040;42.848;23.034;2024-02-26T07:50:55;94465.81;;;10.79;100.00
7990;BME280;4040;42.848;23.034;2024-02-26T07:56:46;94469.81;;;11.14;100.00
7990;BME280;4040;42.848;23.034;2024-02-26T08:02:35;94474.13;;;11.31;100.00
7990;BME280;4040;42.848;23.034;2024-02-26T08:08:24;94474.63;;;11.45;100.00
7990;BME280;4040;42.848;23.034;2024-02-26T08:14:15;94470.84;;;11.62;100.00
7990;BME280;4040;42.848;23.034;2024-02-26T08:24:25;94469.78;;;12.31;100.00
7990;BME280;4040;42.848;23.034;2024-02-26T08:30:16;94470.59;;;12.79;100.00
7990;BME280;4040;42.848;23.034;2024-02-26T08:36:05;94472.44;;;13.42;100.00
7990;BME280;4040;42.848;23.034;2024-02-26T08:41:54;94461.72;;;13.39;100.00
7990;BME280;4040;42.848;23.034;2024-02-26T08:47:46;94465.84;;;12.83;100.00
7990;BME280;4040;42.848;23.034;2024-02-26T08:53:35;94464.47;;;13.23;100.00
7990;BME280;4040;42.848;23.034;2024-02-26T08:59:24;94474.97;;;13.05;100.00
7990;BME280;4040;42.848;23.034;2024-02-26T09:05:15;94461.06;;;13.35;100.00
7990;BME280;4040;42.848;23.034;2024-02-26T09:11:04;94450.59;;;13.78;100.00
7990;BME280;4040;42.848;23.034;2024-02-26T09:16:54;94452.34;;;13.72;100.00
7990;BME280;4040;42.848;23.034;2024-02-26T09:27:06;94444.31;;;13.40;100.00
7990;BME280;4040;42.848;23.034;2024-02-26T09:32:55;94445.28;;;14.28;100.00
7990;BME280;4040;42.848;23.034;2024-02-26T09:38:44;94437.09;;;15.36;100.00
7990;BME280;4040;42.848;23.034;2024-02-26T09:44:36;94421.53;;;15.92;100.00
7990;BME280;4040;42.848;23.034;2024-02-26T09:50:28;94406.63;;;15.32;100.00
7990;BME280;4040;42.848;23.034;2024-02-26T09:56:17;94416.66;;;14.77;100.00
7990;BME280;4040;42.848;23.034;2024-02-26T10:02:09;94415.56;;;14.62;100.00
7990;BME280;4040;42.848;23.034;2024-02-26T10:08:00;94410.56;;;14.73;100.00
7990;BME280;4040;42.848;23.034;2024-02-26T10:13:50;94412.88;;;14.62;100.00
7990;BME280;4040;42.848;23.034;2024-02-26T10:19:40;94412.25;;;14.20;100.00
7990;BME280;4040;42.848;23.034;2024-02-26T10:29:50;94400.09;;;14.37;100.00
7990;BME280;4040;42.848;23.034;2024-02-26T10:35:45;94402.84;;;14.25;100.00
7990;BME280;4040;42.848;23.034;2024-02-26T10:41:34;94396.53;;;14.28;100.00
7990;BME280;4040;42.848;23.034;2024-02-26T10:47:24;94385.56;;;14.56;100.00
7990;BME280;4040;42.848;23.034;2024-02-26T10:53:17;94375.25;;;14.64;100.00
7990;BME280;4040;42.848;23.034;2024-02-26T10:59:07;94368.28;;;15.09;100.00
7990;BME280;4040;42.848;23.034;2024-02-26T11:04:58;94353.41;;;15.14;100.00
7990;BME280;4040;42.848;23.034;2024-02-26T11:10:52;94362.22;;;15.39;100.00
7990;BME280;4040;42.848;23.034;2024-02-26T11:16:42;94367.28;;;15.16;100.00
7990;BME280;4040;42.848;23.034;2024-02-26T11:22:31;94350.53;;;15.51;85.93
7990;BME280;4040;42.848;23.034;2024-02-26T11:24:59;94359.38;;;15.42;84.74
7990;BME280;4040;42.848;23.034;2024-02-26T11:30:51;94359.66;;;14.89;92.41
7990;BME280;4040;42.848;23.034;2024-02-26T11:36:40;94360.03;;;14.79;95.80
7990;BME280;4040;42.848;23.034;2024-02-26T11:42:29;94357.19;;;15.16;94.13
7990;BME280;4040;42.848;23.034;2024-02-26T11:48:25;94348.41;;;14.91;94.33
7990;BME280;4040;42.848;23.034;2024-02-26T11:54:39;94352.50;;;15.17;92.26
7990;BME280;4040;42.848;23.034;2024-02-26T12:00:40;94347.66;;;15.12;89.44
7990;BME280;4040;42.848;23.034;2024-02-26T12:06:30;94341.13;;;16.34;82.04
7990;BME280;4040;42.848;23.034;2024-02-26T12:12:20;94337.19;;;17.97;67.83
7990;BME280;4040;42.848;23.034;2024-02-26T12:18:17;94342.34;;;17.36;69.14
7990;BME280;4040;42.848;23.034;2024-02-26T12:24:13;94333.97;;;16.76;69.97
7990;BME280;4040;42.848;23.034;2024-02-26T12:30:04;94356.56;;;16.37;72.41
7990;BME280;4040;42.848;23.034;2024-02-26T12:35:54;94349.09;;;16.29;70.86
7990;BME280;4040;42.848;23.034;2024-02-26T12:41:45;94334.38;;;16.39;68.55
7990;BME280;4040;42.848;23.034;2024-02-26T12:47:37;94336.69;;;15.88;71.91
7990;BME280;4040;42.848;23.034;2024-02-26T12:53:26;94349.88;;;15.68;69.11
7990;BME280;4040;42.848;23.034;2024-02-26T12:59:17;94337.13;;;15.78;69.96
7990;BME280;4040;42.848;23.034;2024-02-26T13:05:07;94340.91;;;15.80;68.94
7990;BME280;4040;42.848;23.034;2024-02-26T13:10:56;94338.44;;;16.04;68.65
7990;BME280;4040;42.848;23.034;2024-02-26T13:16:56;94331.22;;;15.49;70.90
7990;BME280;4040;42.848;23.034;2024-02-26T13:22:45;94339.16;;;15.65;70.95
7990;BME280;4040;42.848;23.034;2024-02-26T13:33:07;94349.88;;;15.68;69.25
7990;BME280;4040;42.848;23.034;2024-02-26T13:38:57;94355.22;;;15.50;68.88
7990;BME280;4040;42.848;23.034;2024-02-26T13:44:46;94344.59;;;15.43;69.67
7990;BME280;4040;42.848;23.034;2024-02-26T13:50:36;94342.97;;;15.46;68.16
7990;BME280;4040;42.848;23.034;2024-02-26T13:56:25;94339.53;;;15.54;67.57
7990;BME280;4040;42.848;23.034;2024-02-26T14:02:14;94340.69;;;15.44;65.87
7990;BME280;4040;42.848;23.034;2024-02-26T14:08:05;94338.88;;;15.29;65.76
7990;BME280;4040;42.848;23.034;2024-02-26T14:13:55;94354.44;;;15.28;66.81
7990;BME280;4040;42.848;23.034;2024-02-26T14:19:44;94340.53;;;15.26;67.31
7990;BME280;4040;42.848;23.034;2024-02-26T14:25:37;94348.03;;;15.35;66.96
7990;BME280;4040;42.848;23.034;2024-02-26T14:28:05;94353.06;;;15.45;66.93
7990;BME280;4040;42.848;23.034;2024-02-26T14:30:32;94363.91;;;15.45;67.41
7990;BME280;4040;42.848;23.034;2024-02-26T14:36:21;94366.06;;;15.50;66.74
7990;BME280;4040;42.848;23.034;2024-02-26T14:42:11;94365.09;;;15.23;69.02
7990;BME280;4040;42.848;23.034;2024-02-26T14:44:38;94363.22;;;15.32;69.50
7990;BME280;4040;42.848;23.034;2024-02-26T14:50:27;94367.19;;;15.40;68.19
7990;BME280;4040;42.848;23.034;2024-02-26T14:56:16;94363.56;;;15.22;69.59
7990;BME280;4040;42.848;23.034;2024-02-26T15:02:07;94365.22;;;15.20;70.19
7990;BME280;4040;42.848;23.034;2024-02-26T15:07:57;94378.97;;;14.91;71.15
7990;BME280;4040;42.848;23.034;2024-02-26T15:13:46;94361.88;;;14.82;71.16
7990;BME280;4040;42.848;23.034;2024-02-26T15:19:37;94386.16;;;14.85;72.87
7990;BME280;4040;42.848;23.034;2024-02-26T15:25:26;94386.44;;;14.66;73.69
7990;BME280;4040;42.848;23.034;2024-02-26T15:35:37;94398.47;;;14.40;73.99
7990;BME280;4040;42.848;23.034;2024-02-26T15:41:27;94382.75;;;14.10;74.90
7990;BME280;4040;42.848;23.034;2024-02-26T15:47:16;94407.78;;;14.14;75.09
7990;BME280;4040;42.848;23.034;2024-02-26T15:53:07;94407.78;;;14.14;74.42
7990;BME280;4040;42.848;23.034;2024-02-26T15:58:55;94407.53;;;13.96;74.02
7990;BME280;4040;42.848;23.034;2024-02-26T16:04:45;94412.63;;;13.81;75.38
7990;BME280;4040;42.848;23.034;2024-02-26T16:10:35;94409.22;;;13.65;77.36
7990;BME280;4040;42.848;23.034;2024-02-26T16:16:26;94424.31;;;13.37;85.61
7990;BME280;4040;42.848;23.034;2024-02-26T16:22:17;94439.41;;;13.06;94.30
7990;BME280;4040;42.848;23.034;2024-02-26T16:28:07;94443.56;;;12.79;98.96
7990;BME280;4040;42.848;23.034;2024-02-26T16:38:18;94454.00;;;12.29;100.00
7990;BME280;4040;42.848;23.034;2024-02-26T16:44:08;94468.56;;;12.16;100.00
7990;BME280;4040;42.848;23.034;2024-02-26T16:49:57;94465.00;;;12.03;100.00
7990;BME280;4040;42.848;23.034;2024-02-26T16:55:46;94469.97;;;12.04;100.00
7990;BME280;4040;42.848;23.034;2024-02-26T17:01:37;94474.41;;;11.95;100.00
7990;BME280;4040;42.848;23.034;2024-02-26T17:07:25;94479.47;;;11.73;100.00
7990;BME280;4040;42.848;23.034;2024-02-26T17:13:14;94483.50;;;11.65;100.00
7990;BME280;4040;42.848;23.034;2024-02-26T17:19:06;94487.00;;;11.62;100.00
7990;BME280;4040;42.848;23.034;2024-02-26T17:24:55;94495.09;;;11.62;100.00
7990;BME280;4040;42.848;23.034;2024-02-26T17:30:44;94503.06;;;11.69;100.00
7990;BME280;4040;42.848;23.034;2024-02-26T17:40:56;94503.41;;;11.71;100.00
7990;BME280;4040;42.848;23.034;2024-02-26T17:46:45;94507.31;;;11.90;100.00
7990;BME280;4040;42.848;23.034;2024-02-26T17:52:34;94515.59;;;11.79;100.00
7990;BME280;4040;42.848;23.034;2024-02-26T17:58:25;94520.44;;;11.68;100.00
7990;BME280;4040;42.848;23.034;2024-02-26T18:04:14;94524.91;;;11.55;100.00
7990;BME280;4040;42.848;23.034;2024-02-26T18:10:04;94540.84;;;11.46;100.00
7990;BME280;4040;42.848;23.034;2024-02-26T18:15:57;94544.34;;;11.01;100.00
7990;BME280;4040;42.848;23.034;2024-02-26T18:21:46;94548.31;;;10.93;100.00
7990;BME280;4040;42.848;23.034;2024-02-26T18:27:35;94544.72;;;10.76;100.00
7990;BME280;4040;42.848;23.034;2024-02-26T18:33:26;94526.13;;;10.32;100.00
7990;BME280;4040;42.848;23.034;2024-02-26T18:43:38;94562.34;;;10.54;100.00
7990;BME280;4040;42.848;23.034;2024-02-26T18:49:28;94551.59;;;10.54;100.00
7990;BME280;4040;42.848;23.034;2024-02-26T18:55:20;94562.34;;;10.54;100.00
7990;BME280;4040;42.848;23.034;2024-02-26T19:01:09;94560.13;;;10.49;100.00
7990;BME280;4040;42.848;23.034;2024-02-26T19:06:59;94583.00;;;10.34;100.00
7990;BME280;4040;42.848;23.034;2024-02-26T19:12:48;94588.75;;;10.36;100.00
7990;BME280;4040;42.848;23.034;2024-02-26T19:18:37;94586.59;;;10.24;100.00
7990;BME280;4040;42.848;23.034;2024-02-26T19:24:27;94603.09;;;10.26;100.00
7990;BME280;4040;42.848;23.034;2024-02-26T19:30:16;94605.91;;;10.19;100.00
7990;BME280;4040;42.848;23.034;2024-02-26T19:36:06;94614.13;;;10.05;100.00
7990;BME280;4040;42.848;23.034;2024-02-26T19:46:19;94626.16;;;9.54;100.00
7990;BME280;4040;42.848;23.034;2024-02-26T19:52:08;94629.00;;;9.40;100.00
7990;BME280;4040;42.848;23.034;2024-02-26T19:57:59;94634.38;;;9.40;100.00
7990;BME280;4040;42.848;23.034;2024-02-26T20:03:52;94636.75;;;9.27;100.00
7990;BME280;4040;42.848;23.034;2024-02-26T20:09:40;94646.78;;;9.27;100.00
7990;BME280;4040;42.848;23.034;2024-02-26T20:15:29;94651.50;;;9.09;100.00
7990;BME280;4040;42.848;23.034;2024-02-26T20:21:20;94652.38;;;8.95;100.00
7990;BME280;4040;42.848;23.034;2024-02-26T20:27:10;94659.34;;;8.86;100.00
7990;BME280;4040;42.848;23.034;2024-02-26T20:32:59;94644.16;;;8.62;100.00
7990;BME280;4040;42.848;23.034;2024-02-26T20:38:50;94662.63;;;8.49;100.00
7990;BME280;4040;42.848;23.034;2024-02-26T20:49:02;94670.31;;;8.37;100.00
7990;BME280;4040;42.848;23.034;2024-02-26T20:54:54;94682.63;;;8.31;100.00
7990;BME280;4040;42.848;23.034;2024-02-26T21:00:44;94678.78;;;8.32;100.00
7990;BME280;4040;42.848;23.034;2024-02-26T21:06:33;94685.69;;;8.33;100.00
7990;BME280;4040;42.848;23.034;2024-02-26T21:12:25;94685.31;;;8.27;100.00
7990;BME280;4040;42.848;23.034;2024-02-26T21:18:14;94680.38;;;8.12;100.00
7990;BME280;4040;42.848;23.034;2024-02-26T21:24:04;94685.78;;;7.91;100.00
7990;BME280;4040;42.848;23.034;2024-02-26T21:29:54;94689.66;;;7.62;100.00
7990;BME280;4040;42.848;23.034;2024-02-26T21:35:43;94693.88;;;7.28;100.00
7990;BME280;4040;42.848;23.034;2024-02-26T21:41:32;94670.53;;;6.90;100.00
7990;BME280;4040;42.848;23.034;2024-02-26T21:51:45;94717.97;;;7.07;100.00
7990;BME280;4040;42.848;23.034;2024-02-26T21:57:42;94725.59;;;6.84;100.00
7990;BME280;4040;42.848;23.034;2024-02-26T22:03:32;94707.16;;;6.62;100.00
7990;BME280;4040;42.848;23.034;2024-02-26T22:09:24;94737.06;;;6.88;100.00
7990;BME280;4040;42.848;23.034;2024-02-26T22:15:14;94619.44;;;5.92;100.00
7990;BME280;4040;42.848;23.034;2024-02-26T22:21:04;94756.88;;;6.66;100.00
7990;BME280;4040;42.848;23.034;2024-02-26T22:26:56;94744.59;;;6.58;100.00
7990;BME280;4040;42.848;23.034;2024-02-26T22:32:45;94741.91;;;6.44;100.00
7990;BME280;4040;42.848;23.034;2024-02-26T22:38:34;94742.22;;;6.39;100.00
7990;BME280;4040;42.848;23.034;2024-02-26T22:44:26;94706.94;;;6.09;100.00
7990;BME280;4040;42.848;23.034;2024-02-26T22:54:37;94748.31;;;6.29;100.00
7990;BME280;4040;42.848;23.034;2024-02-26T23:08:30;94745.84;;;5.96;100.00
7990;BME280;4040;42.848;23.034;2024-02-26T23:14:19;94752.81;;;6.11;100.00
7990;BME280;4040;42.848;23.034;2024-02-26T23:20:09;94758.94;;;6.15;100.00
7990;BME280;4040;42.848;23.034;2024-02-26T23:25:59;94769.59;;;6.08;100.00
7990;BME280;4040;42.848;23.034;2024-02-26T23:31:48;94780.69;;;6.10;100.00
7990;BME280;4040;42.848;23.034;2024-02-26T23:37:37;94782.53;;;6.03;100.00
7990;BME280;4040;42.848;23.034;2024-02-26T23:43:28;94768.75;;;5.97;100.00
7990;BME280;4040;42.848;23.034;2024-02-26T23:49:17;94784.41;;;5.95;100.00
7990;BME280;4040;42.848;23.034;2024-02-26T23:55:06;94793.94;;;5.96;100.00
